Google Maps JavaScript API Example
Pilot Flight Report # 94336 Submitted by : AST204 on 2020-08-29
Date: 2020-08-29Aircraft: Boeing 777-300
Flight No.: Not AvailableDistance (Nm): 2054.16
Departure: WSSS - ChangiDestination: ZSPD - Pudong
 TimeFuelWeightSpeeds  
Out (Taxi)2306Z317308 lbs728352 lbs Flight RulesIFR
Off (Takeoff)2317Z 724771 lbs199 ktsFlight Level37000
On (Landing)0343Z 648386 lbs145 ktsVSTD-424 ft/min
In (Ramp)0346Z236616 lbs647652 lbs ZFW411007 lbs
Flight4.40  -  4:2676377 lbs  Pax0
Block4.67  -  4:4080692 lbs  Cargo0
Departure WeatherWSSS 242330Z 18003KT 170V240 9999 FEW018 BKN150 26/24 Q1009 NOSIG
Destination WeatherZSPD 240346Z 27605KT 22SM SCT018 OVC044 27/24 A2962
Flight Comments